sensor_id;sensor_type;location;lat;lon;timestamp;P1;durP1;ratioP1;P2;durP2;ratioP2
8171;SDS011;4127;47.908;10.850;2024-01-11T00:00:03;16.27;;;10.93;;
8171;SDS011;4127;47.908;10.850;2024-01-11T00:02:31;16.93;;;11.33;;
8171;SDS011;4127;47.908;10.850;2024-01-11T00:04:58;16.47;;;12.00;;
8171;SDS011;4127;47.908;10.850;2024-01-11T00:07:31;14.77;;;10.73;;
8171;SDS011;4127;47.908;10.850;2024-01-11T00:09:58;16.77;;;10.90;;
8171;SDS011;4127;47.908;10.850;2024-01-11T00:12:32;16.37;;;10.50;;
8171;SDS011;4127;47.908;10.850;2024-01-11T00:14:59;14.07;;;9.27;;
8171;SDS011;4127;47.908;10.850;2024-01-11T00:17:27;15.50;;;10.67;;
8171;SDS011;4127;47.908;10.850;2024-01-11T00:19:54;13.67;;;9.77;;
8171;SDS011;4127;47.908;10.850;2024-01-11T00:22:21;16.70;;;11.37;;
8171;SDS011;4127;47.908;10.850;2024-01-11T00:24:48;16.30;;;10.83;;
8171;SDS011;4127;47.908;10.850;2024-01-11T00:27:15;17.73;;;11.00;;
8171;SDS011;4127;47.908;10.850;2024-01-11T00:29:45;16.77;;;10.77;;
8171;SDS011;4127;47.908;10.850;2024-01-11T00:32:13;17.03;;;11.53;;
8171;SDS011;4127;47.908;10.850;2024-01-11T00:34:39;15.30;;;10.93;;
8171;SDS011;4127;47.908;10.850;2024-01-11T00:37:07;15.70;;;10.57;;
8171;SDS011;4127;47.908;10.850;2024-01-11T00:39:34;15.77;;;11.40;;
8171;SDS011;4127;47.908;10.850;2024-01-11T00:42:00;17.57;;;11.57;;
8171;SDS011;4127;47.908;10.850;2024-01-11T00:44:28;15.63;;;10.87;;
8171;SDS011;4127;47.908;10.850;2024-01-11T00:46:55;17.00;;;12.03;;
8171;SDS011;4127;47.908;10.850;2024-01-11T00:49:22;15.03;;;11.00;;
8171;SDS011;4127;47.908;10.850;2024-01-11T00:51:49;14.77;;;11.00;;
8171;SDS011;4127;47.908;10.850;2024-01-11T00:54:16;16.80;;;11.47;;
8171;SDS011;4127;47.908;10.850;2024-01-11T00:56:44;16.37;;;11.07;;
8171;SDS011;4127;47.908;10.850;2024-01-11T00:59:20;18.40;;;11.63;;
8171;SDS011;4127;47.908;10.850;2024-01-11T01:01:50;17.70;;;12.13;;
8171;SDS011;4127;47.908;10.850;2024-01-11T01:04:17;15.27;;;11.00;;
8171;SDS011;4127;47.908;10.850;2024-01-11T01:06:44;17.63;;;11.87;;
8171;SDS011;4127;47.908;10.850;2024-01-11T01:09:12;16.17;;;11.10;;
8171;SDS011;4127;47.908;10.850;2024-01-11T01:11:39;17.80;;;11.67;;
8171;SDS011;4127;47.908;10.850;2024-01-11T01:14:07;17.83;;;11.47;;
8171;SDS011;4127;47.908;10.850;2024-01-11T01:16:34;17.90;;;12.03;;
8171;SDS011;4127;47.908;10.850;2024-01-11T01:19:01;16.17;;;10.43;;
8171;SDS011;4127;47.908;10.850;2024-01-11T01:21:28;16.17;;;11.17;;
8171;SDS011;4127;47.908;10.850;2024-01-11T01:23:56;15.87;;;10.93;;
8171;SDS011;4127;47.908;10.850;2024-01-11T01:26:24;16.70;;;11.20;;
8171;SDS011;4127;47.908;10.850;2024-01-11T01:28:51;17.23;;;11.27;;
8171;SDS011;4127;47.908;10.850;2024-01-11T01:31:18;15.73;;;10.67;;
8171;SDS011;4127;47.908;10.850;2024-01-11T01:33:45;16.10;;;11.27;;
8171;SDS011;4127;47.908;10.850;2024-01-11T01:36:12;14.33;;;11.17;;
8171;SDS011;4127;47.908;10.850;2024-01-11T01:38:40;14.33;;;10.87;;
8171;SDS011;4127;47.908;10.850;2024-01-11T01:41:07;18.77;;;10.70;;
8171;SDS011;4127;47.908;10.850;2024-01-11T01:43:34;18.33;;;11.63;;
8171;SDS011;4127;47.908;10.850;2024-01-11T01:46:01;15.07;;;10.37;;
8171;SDS011;4127;47.908;10.850;2024-01-11T01:48:31;16.00;;;10.87;;
8171;SDS011;4127;47.908;10.850;2024-01-11T01:51:03;17.40;;;11.37;;
8171;SDS011;4127;47.908;10.850;2024-01-11T01:53:39;19.40;;;12.10;;
8171;SDS011;4127;47.908;10.850;2024-01-11T01:56:06;16.17;;;10.77;;
8171;SDS011;4127;47.908;10.850;2024-01-11T01:58:44;16.57;;;10.90;;
8171;SDS011;4127;47.908;10.850;2024-01-11T02:01:24;15.70;;;10.87;;
8171;SDS011;4127;47.908;10.850;2024-01-11T02:03:54;16.77;;;11.27;;
8171;SDS011;4127;47.908;10.850;2024-01-11T02:06:30;16.80;;;12.57;;
8171;SDS011;4127;47.908;10.850;2024-01-11T02:09:00;18.40;;;11.23;;
8171;SDS011;4127;47.908;10.850;2024-01-11T02:11:30;17.70;;;11.10;;
8171;SDS011;4127;47.908;10.850;2024-01-11T02:14:01;16.90;;;12.07;;
8171;SDS011;4127;47.908;10.850;2024-01-11T02:16:29;17.67;;;11.60;;
8171;SDS011;4127;47.908;10.850;2024-01-11T02:18:59;18.53;;;11.53;;
8171;SDS011;4127;47.908;10.850;2024-01-11T02:21:27;16.37;;;11.40;;
8171;SDS011;4127;47.908;10.850;2024-01-11T02:24:05;18.47;;;12.20;;
8171;SDS011;4127;47.908;10.850;2024-01-11T02:26:36;21.07;;;12.40;;
8171;SDS011;4127;47.908;10.850;2024-01-11T02:29:24;16.77;;;11.10;;
8171;SDS011;4127;47.908;10.850;2024-01-11T02:31:51;17.80;;;11.63;;
8171;SDS011;4127;47.908;10.850;2024-01-11T02:34:18;17.20;;;11.53;;
8171;SDS011;4127;47.908;10.850;2024-01-11T02:36:46;19.03;;;12.57;;
8171;SDS011;4127;47.908;10.850;2024-01-11T02:39:27;17.07;;;11.97;;
8171;SDS011;4127;47.908;10.850;2024-01-11T02:41:55;18.63;;;12.90;;
8171;SDS011;4127;47.908;10.850;2024-01-11T02:44:23;21.43;;;12.93;;
8171;SDS011;4127;47.908;10.850;2024-01-11T02:46:50;20.93;;;14.10;;
8171;SDS011;4127;47.908;10.850;2024-01-11T02:49:17;24.63;;;13.73;;
8171;SDS011;4127;47.908;10.850;2024-01-11T02:51:47;22.77;;;13.93;;
8171;SDS011;4127;47.908;10.850;2024-01-11T02:54:27;23.40;;;14.33;;
8171;SDS011;4127;47.908;10.850;2024-01-11T02:56:57;20.57;;;13.40;;
8171;SDS011;4127;47.908;10.850;2024-01-11T02:59:25;21.33;;;12.83;;
8171;SDS011;4127;47.908;10.850;2024-01-11T03:01:55;21.07;;;13.10;;
8171;SDS011;4127;47.908;10.850;2024-01-11T03:04:22;21.40;;;14.20;;
8171;SDS011;4127;47.908;10.850;2024-01-11T03:06:49;24.17;;;13.63;;
8171;SDS011;4127;47.908;10.850;2024-01-11T03:09:16;20.87;;;12.97;;
8171;SDS011;4127;47.908;10.850;2024-01-11T03:11:46;24.07;;;14.90;;
8171;SDS011;4127;47.908;10.850;2024-01-11T03:14:13;24.50;;;14.03;;
8171;SDS011;4127;47.908;10.850;2024-01-11T03:16:49;24.73;;;15.30;;
8171;SDS011;4127;47.908;10.850;2024-01-11T03:19:19;22.03;;;14.40;;
8171;SDS011;4127;47.908;10.850;2024-01-11T03:21:46;22.50;;;13.90;;
8171;SDS011;4127;47.908;10.850;2024-01-11T03:24:13;21.33;;;13.50;;
8171;SDS011;4127;47.908;10.850;2024-01-11T03:26:41;20.00;;;12.90;;
8171;SDS011;4127;47.908;10.850;2024-01-11T03:29:08;20.93;;;13.53;;
8171;SDS011;4127;47.908;10.850;2024-01-11T03:31:35;83.23;;;19.67;;
8171;SDS011;4127;47.908;10.850;2024-01-11T03:34:04;66.20;;;20.10;;
8171;SDS011;4127;47.908;10.850;2024-01-11T03:36:32;22.70;;;13.03;;
8171;SDS011;4127;47.908;10.850;2024-01-11T03:38:59;72.10;;;18.60;;
8171;SDS011;4127;47.908;10.850;2024-01-11T03:41:28;98.27;;;19.10;;
8171;SDS011;4127;47.908;10.850;2024-01-11T03:43:58;54.80;;;16.23;;
8171;SDS011;4127;47.908;10.850;2024-01-11T03:46:25;23.50;;;14.47;;
8171;SDS011;4127;47.908;10.850;2024-01-11T03:48:52;19.10;;;12.80;;
8171;SDS011;4127;47.908;10.850;2024-01-11T03:51:19;18.53;;;11.63;;
8171;SDS011;4127;47.908;10.850;2024-01-11T03:53:49;18.17;;;11.93;;
8171;SDS011;4127;47.908;10.850;2024-01-11T03:56:17;19.83;;;12.07;;
8171;SDS011;4127;47.908;10.850;2024-01-11T03:58:44;21.13;;;13.37;;
8171;SDS011;4127;47.908;10.850;2024-01-11T04:01:11;20.90;;;11.93;;
8171;SDS011;4127;47.908;10.850;2024-01-11T04:03:38;20.07;;;12.27;;
8171;SDS011;4127;47.908;10.850;2024-01-11T04:06:08;16.50;;;11.00;;
8171;SDS011;4127;47.908;10.850;2024-01-11T04:08:35;18.43;;;11.47;;
8171;SDS011;4127;47.908;10.850;2024-01-11T04:11:02;50.67;;;16.60;;
8171;SDS011;4127;47.908;10.850;2024-01-11T04:13:36;27.70;;;13.37;;
8171;SDS011;4127;47.908;10.850;2024-01-11T04:16:04;45.43;;;16.27;;
8171;SDS011;4127;47.908;10.850;2024-01-11T04:18:39;19.07;;;12.07;;
8171;SDS011;4127;47.908;10.850;2024-01-11T04:21:06;21.77;;;13.17;;
8171;SDS011;4127;47.908;10.850;2024-01-11T04:23:33;18.50;;;11.97;;
8171;SDS011;4127;47.908;10.850;2024-01-11T04:26:01;19.37;;;12.73;;
8171;SDS011;4127;47.908;10.850;2024-01-11T04:28:28;17.20;;;11.87;;
8171;SDS011;4127;47.908;10.850;2024-01-11T04:30:55;17.73;;;12.03;;
8171;SDS011;4127;47.908;10.850;2024-01-11T04:33:23;17.50;;;12.00;;
8171;SDS011;4127;47.908;10.850;2024-01-11T04:35:50;20.80;;;12.90;;
8171;SDS011;4127;47.908;10.850;2024-01-11T04:38:17;18.10;;;12.63;;
8171;SDS011;4127;47.908;10.850;2024-01-11T04:40:44;26.83;;;14.63;;
8171;SDS011;4127;47.908;10.850;2024-01-11T04:43:15;19.50;;;12.77;;
8171;SDS011;4127;47.908;10.850;2024-01-11T04:45:42;18.20;;;12.10;;
8171;SDS011;4127;47.908;10.850;2024-01-11T04:48:09;18.17;;;12.13;;
8171;SDS011;4127;47.908;10.850;2024-01-11T04:50:39;16.97;;;11.57;;
8171;SDS011;4127;47.908;10.850;2024-01-11T04:53:06;18.53;;;12.03;;
8171;SDS011;4127;47.908;10.850;2024-01-11T04:55:35;18.60;;;11.57;;
8171;SDS011;4127;47.908;10.850;2024-01-11T04:58:02;17.67;;;12.90;;
8171;SDS011;4127;47.908;10.850;2024-01-11T05:00:29;58.57;;;16.00;;
8171;SDS011;4127;47.908;10.850;2024-01-11T05:03:05;19.77;;;12.47;;
8171;SDS011;4127;47.908;10.850;2024-01-11T05:05:34;17.87;;;12.77;;
8171;SDS011;4127;47.908;10.850;2024-01-11T05:08:01;30.07;;;14.10;;
8171;SDS011;4127;47.908;10.850;2024-01-11T05:10:31;28.27;;;13.30;;
8171;SDS011;4127;47.908;10.850;2024-01-11T05:12:59;18.20;;;11.17;;
8171;SDS011;4127;47.908;10.850;2024-01-11T05:15:26;18.07;;;11.27;;
8171;SDS011;4127;47.908;10.850;2024-01-11T05:17:54;77.97;;;21.40;;
8171;SDS011;4127;47.908;10.850;2024-01-11T05:20:24;54.10;;;19.77;;
8171;SDS011;4127;47.908;10.850;2024-01-11T05:22:51;76.43;;;22.80;;
8171;SDS011;4127;47.908;10.850;2024-01-11T05:25:17;87.37;;;21.57;;
8171;SDS011;4127;47.908;10.850;2024-01-11T05:27:44;55.43;;;19.83;;
8171;SDS011;4127;47.908;10.850;2024-01-11T05:30:11;64.60;;;20.73;;
8171;SDS011;4127;47.908;10.850;2024-01-11T05:32:39;65.07;;;21.40;;
8171;SDS011;4127;47.908;10.850;2024-01-11T05:35:06;41.10;;;18.20;;
8171;SDS011;4127;47.908;10.850;2024-01-11T05:37:33;43.43;;;20.40;;
8171;SDS011;4127;47.908;10.850;2024-01-11T05:40:00;49.30;;;19.53;;
8171;SDS011;4127;47.908;10.850;2024-01-11T05:42:27;62.90;;;20.43;;
8171;SDS011;4127;47.908;10.850;2024-01-11T05:44:54;105.73;;;23.43;;
8171;SDS011;4127;47.908;10.850;2024-01-11T05:47:21;47.60;;;19.20;;
8171;SDS011;4127;47.908;10.850;2024-01-11T05:49:49;28.10;;;15.23;;
8171;SDS011;4127;47.908;10.850;2024-01-11T05:52:16;22.53;;;14.17;;
8171;SDS011;4127;47.908;10.850;2024-01-11T05:54:44;56.77;;;17.90;;
8171;SDS011;4127;47.908;10.850;2024-01-11T05:57:11;26.33;;;14.77;;
8171;SDS011;4127;47.908;10.850;2024-01-11T05:59:43;34.17;;;16.77;;
8171;SDS011;4127;47.908;10.850;2024-01-11T06:02:13;60.13;;;19.73;;
8171;SDS011;4127;47.908;10.850;2024-01-11T06:04:40;24.83;;;14.83;;
8171;SDS011;4127;47.908;10.850;2024-01-11T06:07:14;40.43;;;16.43;;
8171;SDS011;4127;47.908;10.850;2024-01-11T06:09:42;25.50;;;14.37;;
8171;SDS011;4127;47.908;10.850;2024-01-11T06:12:10;30.23;;;15.83;;
8171;SDS011;4127;47.908;10.850;2024-01-11T06:14:37;43.37;;;19.73;;
8171;SDS011;4127;47.908;10.850;2024-01-11T06:17:04;42.67;;;18.10;;
8171;SDS011;4127;47.908;10.850;2024-01-11T06:19:31;26.93;;;15.70;;
8171;SDS011;4127;47.908;10.850;2024-01-11T06:21:58;30.47;;;17.07;;
8171;SDS011;4127;47.908;10.850;2024-01-11T06:24:25;35.97;;;17.47;;
8171;SDS011;4127;47.908;10.850;2024-01-11T06:26:55;34.20;;;17.50;;
8171;SDS011;4127;47.908;10.850;2024-01-11T06:29:22;42.40;;;17.47;;
8171;SDS011;4127;47.908;10.850;2024-01-11T06:31:49;45.60;;;19.23;;
8171;SDS011;4127;47.908;10.850;2024-01-11T06:34:16;64.27;;;19.53;;
8171;SDS011;4127;47.908;10.850;2024-01-11T06:36:43;64.83;;;20.10;;
8171;SDS011;4127;47.908;10.850;2024-01-11T06:39:10;26.77;;;14.97;;
8171;SDS011;4127;47.908;10.850;2024-01-11T06:41:38;38.37;;;16.30;;
8171;SDS011;4127;47.908;10.850;2024-01-11T06:44:08;99.20;;;19.93;;
8171;SDS011;4127;47.908;10.850;2024-01-11T06:46:35;32.53;;;15.40;;
8171;SDS011;4127;47.908;10.850;2024-01-11T06:49:05;24.90;;;13.83;;
8171;SDS011;4127;47.908;10.850;2024-01-11T06:51:32;87.27;;;21.07;;
8171;SDS011;4127;47.908;10.850;2024-01-11T06:54:00;24.73;;;15.07;;
8171;SDS011;4127;47.908;10.850;2024-01-11T06:56:27;31.70;;;14.97;;
8171;SDS011;4127;47.908;10.850;2024-01-11T06:58:54;26.03;;;14.60;;
8171;SDS011;4127;47.908;10.850;2024-01-11T07:01:24;28.17;;;14.40;;
8171;SDS011;4127;47.908;10.850;2024-01-11T07:03:52;26.37;;;15.27;;
8171;SDS011;4127;47.908;10.850;2024-01-11T07:06:19;54.70;;;20.53;;
8171;SDS011;4127;47.908;10.850;2024-01-11T07:08:46;69.60;;;19.43;;
8171;SDS011;4127;47.908;10.850;2024-01-11T07:11:13;72.30;;;19.37;;
8171;SDS011;4127;47.908;10.850;2024-01-11T07:13:40;50.97;;;19.03;;
8171;SDS011;4127;47.908;10.850;2024-01-11T07:16:07;46.07;;;16.43;;
8171;SDS011;4127;47.908;10.850;2024-01-11T07:18:35;65.80;;;20.60;;
8171;SDS011;4127;47.908;10.850;2024-01-11T07:21:02;40.90;;;17.07;;
8171;SDS011;4127;47.908;10.850;2024-01-11T07:23:32;48.63;;;17.23;;
8171;SDS011;4127;47.908;10.850;2024-01-11T07:25:59;29.80;;;14.07;;
8171;SDS011;4127;47.908;10.850;2024-01-11T07:28:26;36.33;;;16.57;;
8171;SDS011;4127;47.908;10.850;2024-01-11T07:30:53;23.50;;;14.53;;
8171;SDS011;4127;47.908;10.850;2024-01-11T07:33:20;27.37;;;15.63;;
8171;SDS011;4127;47.908;10.850;2024-01-11T07:35:47;28.07;;;14.50;;
8171;SDS011;4127;47.908;10.850;2024-01-11T07:38:14;26.00;;;16.13;;
8171;SDS011;4127;47.908;10.850;2024-01-11T07:40:41;23.37;;;15.00;;
8171;SDS011;4127;47.908;10.850;2024-01-11T07:43:12;24.33;;;14.93;;
8171;SDS011;4127;47.908;10.850;2024-01-11T07:45:40;24.53;;;14.80;;
8171;SDS011;4127;47.908;10.850;2024-01-11T07:48:07;24.97;;;15.73;;
8171;SDS011;4127;47.908;10.850;2024-01-11T07:50:35;26.90;;;14.07;;
8171;SDS011;4127;47.908;10.850;2024-01-11T07:53:05;27.70;;;16.40;;
8171;SDS011;4127;47.908;10.850;2024-01-11T07:55:32;29.13;;;16.33;;
8171;SDS011;4127;47.908;10.850;2024-01-11T07:57:59;29.83;;;16.97;;
8171;SDS011;4127;47.908;10.850;2024-01-11T08:00:29;34.40;;;16.67;;
8171;SDS011;4127;47.908;10.850;2024-01-11T08:02:59;50.43;;;17.33;;
8171;SDS011;4127;47.908;10.850;2024-01-11T08:05:26;49.03;;;18.43;;
8171;SDS011;4127;47.908;10.850;2024-01-11T08:07:53;31.40;;;16.07;;
8171;SDS011;4127;47.908;10.850;2024-01-11T08:10:21;24.57;;;13.93;;
8171;SDS011;4127;47.908;10.850;2024-01-11T08:12:49;39.73;;;17.63;;
8171;SDS011;4127;47.908;10.850;2024-01-11T08:15:15;42.03;;;16.10;;
8171;SDS011;4127;47.908;10.850;2024-01-11T08:17:44;26.37;;;13.37;;
8171;SDS011;4127;47.908;10.850;2024-01-11T08:20:14;49.70;;;16.00;;
8171;SDS011;4127;47.908;10.850;2024-01-11T08:22:41;21.20;;;12.73;;
8171;SDS011;4127;47.908;10.850;2024-01-11T08:25:09;20.07;;;12.33;;
8171;SDS011;4127;47.908;10.850;2024-01-11T08:27:37;24.57;;;14.20;;
8171;SDS011;4127;47.908;10.850;2024-01-11T08:30:04;22.87;;;13.20;;
8171;SDS011;4127;47.908;10.850;2024-01-11T08:32:41;23.77;;;12.87;;
8171;SDS011;4127;47.908;10.850;2024-01-11T08:35:09;84.53;;;19.53;;
8171;SDS011;4127;47.908;10.850;2024-01-11T08:37:37;35.23;;;15.53;;
8171;SDS011;4127;47.908;10.850;2024-01-11T08:40:05;23.23;;;12.80;;
8171;SDS011;4127;47.908;10.850;2024-01-11T08:42:35;19.90;;;11.87;;
8171;SDS011;4127;47.908;10.850;2024-01-11T08:45:03;18.83;;;11.13;;
8171;SDS011;4127;47.908;10.850;2024-01-11T08:47:33;18.13;;;12.67;;
8171;SDS011;4127;47.908;10.850;2024-01-11T08:50:05;30.03;;;12.77;;
8171;SDS011;4127;47.908;10.850;2024-01-11T08:52:32;23.40;;;11.90;;
8171;SDS011;4127;47.908;10.850;2024-01-11T08:55:00;17.53;;;11.53;;
8171;SDS011;4127;47.908;10.850;2024-01-11T08:57:27;18.47;;;12.13;;
8171;SDS011;4127;47.908;10.850;2024-01-11T08:59:55;23.53;;;12.53;;
8171;SDS011;4127;47.908;10.850;2024-01-11T09:02:25;84.00;;;16.73;;
8171;SDS011;4127;47.908;10.850;2024-01-11T09:04:53;59.07;;;16.83;;
8171;SDS011;4127;47.908;10.850;2024-01-11T09:07:20;18.50;;;11.50;;
8171;SDS011;4127;47.908;10.850;2024-01-11T09:09:47;18.07;;;11.87;;
8171;SDS011;4127;47.908;10.850;2024-01-11T09:12:22;19.57;;;11.73;;
8171;SDS011;4127;47.908;10.850;2024-01-11T09:14:49;19.90;;;12.97;;
8171;SDS011;4127;47.908;10.850;2024-01-11T09:17:16;21.03;;;12.13;;
8171;SDS011;4127;47.908;10.850;2024-01-11T09:19:43;20.37;;;12.23;;
8171;SDS011;4127;47.908;10.850;2024-01-11T09:22:10;20.07;;;11.63;;
8171;SDS011;4127;47.908;10.850;2024-01-11T09:24:37;19.80;;;12.07;;
8171;SDS011;4127;47.908;10.850;2024-01-11T09:27:10;17.57;;;11.47;;
8171;SDS011;4127;47.908;10.850;2024-01-11T09:29:44;35.83;;;15.70;;
8171;SDS011;4127;47.908;10.850;2024-01-11T09:32:12;27.17;;;15.57;;
8171;SDS011;4127;47.908;10.850;2024-01-11T09:35:05;35.33;;;14.83;;
8171;SDS011;4127;47.908;10.850;2024-01-11T09:37:32;24.60;;;13.27;;
8171;SDS011;4127;47.908;10.850;2024-01-11T09:40:02;22.63;;;13.40;;
8171;SDS011;4127;47.908;10.850;2024-01-11T09:42:32;25.87;;;13.17;;
8171;SDS011;4127;47.908;10.850;2024-01-11T09:45:12;21.03;;;13.33;;
8171;SDS011;4127;47.908;10.850;2024-01-11T09:47:40;21.17;;;13.37;;
8171;SDS011;4127;47.908;10.850;2024-01-11T09:50:17;26.93;;;13.73;;
8171;SDS011;4127;47.908;10.850;2024-01-11T09:52:45;24.93;;;13.30;;
8171;SDS011;4127;47.908;10.850;2024-01-11T09:55:16;26.17;;;13.47;;
8171;SDS011;4127;47.908;10.850;2024-01-11T09:57:50;24.90;;;13.40;;
8171;SDS011;4127;47.908;10.850;2024-01-11T10:00:24;19.47;;;12.90;;
8171;SDS011;4127;47.908;10.850;2024-01-11T10:02:52;20.30;;;11.50;;
8171;SDS011;4127;47.908;10.850;2024-01-11T10:05:28;25.83;;;13.70;;
8171;SDS011;4127;47.908;10.850;2024-01-11T10:08:12;18.23;;;11.93;;
8171;SDS011;4127;47.908;10.850;2024-01-11T10:10:45;19.97;;;12.00;;
8171;SDS011;4127;47.908;10.850;2024-01-11T10:13:15;22.17;;;13.80;;
8171;SDS011;4127;47.908;10.850;2024-01-11T10:15:52;33.70;;;13.90;;
8171;SDS011;4127;47.908;10.850;2024-01-11T10:18:19;20.93;;;11.53;;
8171;SDS011;4127;47.908;10.850;2024-01-11T10:20:50;19.50;;;12.53;;
8171;SDS011;4127;47.908;10.850;2024-01-11T10:23:18;20.60;;;13.80;;
8171;SDS011;4127;47.908;10.850;2024-01-11T10:25:46;20.67;;;12.53;;
8171;SDS011;4127;47.908;10.850;2024-01-11T10:28:14;18.53;;;12.10;;
8171;SDS011;4127;47.908;10.850;2024-01-11T10:30:40;16.70;;;11.50;;
8171;SDS011;4127;47.908;10.850;2024-01-11T10:33:07;18.73;;;11.60;;
8171;SDS011;4127;47.908;10.850;2024-01-11T10:35:35;16.30;;;10.53;;
8171;SDS011;4127;47.908;10.850;2024-01-11T10:38:02;17.53;;;11.67;;
8171;SDS011;4127;47.908;10.850;2024-01-11T10:40:35;17.40;;;11.10;;
8171;SDS011;4127;47.908;10.850;2024-01-11T10:43:02;15.53;;;11.10;;
8171;SDS011;4127;47.908;10.850;2024-01-11T10:45:37;16.27;;;10.53;;
8171;SDS011;4127;47.908;10.850;2024-01-11T10:48:15;15.73;;;11.00;;
8171;SDS011;4127;47.908;10.850;2024-01-11T10:50:43;17.90;;;11.60;;
8171;SDS011;4127;47.908;10.850;2024-01-11T10:55:47;19.57;;;12.03;;
8171;SDS011;4127;47.908;10.850;2024-01-11T10:58:16;18.13;;;10.53;;
8171;SDS011;4127;47.908;10.850;2024-01-11T11:00:56;18.60;;;11.50;;
8171;SDS011;4127;47.908;10.850;2024-01-11T11:03:25;17.50;;;11.80;;
8171;SDS011;4127;47.908;10.850;2024-01-11T11:05:54;18.03;;;11.50;;
8171;SDS011;4127;47.908;10.850;2024-01-11T11:08:22;18.37;;;11.47;;
8171;SDS011;4127;47.908;10.850;2024-01-11T11:10:56;18.77;;;11.67;;
8171;SDS011;4127;47.908;10.850;2024-01-11T11:13:30;19.27;;;12.23;;
8171;SDS011;4127;47.908;10.850;2024-01-11T11:15:58;20.80;;;12.37;;
8171;SDS011;4127;47.908;10.850;2024-01-11T11:18:27;21.97;;;14.47;;
8171;SDS011;4127;47.908;10.850;2024-01-11T11:20:55;22.57;;;13.23;;
8171;SDS011;4127;47.908;10.850;2024-01-11T11:23:22;21.43;;;13.30;;
8171;SDS011;4127;47.908;10.850;2024-01-11T11:25:49;22.20;;;13.83;;
8171;SDS011;4127;47.908;10.850;2024-01-11T11:28:20;20.47;;;13.43;;
8171;SDS011;4127;47.908;10.850;2024-01-11T11:31:11;22.07;;;12.83;;
8171;SDS011;4127;47.908;10.850;2024-01-11T11:33:38;24.13;;;14.83;;
8171;SDS011;4127;47.908;10.850;2024-01-11T11:36:09;24.80;;;14.57;;
8171;SDS011;4127;47.908;10.850;2024-01-11T11:38:40;27.73;;;13.97;;
8171;SDS011;4127;47.908;10.850;2024-01-11T11:41:08;20.23;;;12.23;;
8171;SDS011;4127;47.908;10.850;2024-01-11T11:43:35;19.23;;;11.37;;
8171;SDS011;4127;47.908;10.850;2024-01-11T11:46:02;29.60;;;14.20;;
8171;SDS011;4127;47.908;10.850;2024-01-11T11:51:15;25.73;;;15.90;;
8171;SDS011;4127;47.908;10.850;2024-01-11T11:53:49;23.03;;;14.63;;
8171;SDS011;4127;47.908;10.850;2024-01-11T11:56:19;17.53;;;12.13;;
8171;SDS011;4127;47.908;10.850;2024-01-11T11:58:48;19.17;;;12.90;;
8171;SDS011;4127;47.908;10.850;2024-01-11T12:01:18;22.50;;;14.17;;
8171;SDS011;4127;47.908;10.850;2024-01-11T12:03:45;23.27;;;14.90;;
8171;SDS011;4127;47.908;10.850;2024-01-11T12:06:17;24.50;;;15.83;;
8171;SDS011;4127;47.908;10.850;2024-01-11T12:08:46;23.63;;;15.63;;
8171;SDS011;4127;47.908;10.850;2024-01-11T12:11:14;26.50;;;17.20;;
8171;SDS011;4127;47.908;10.850;2024-01-11T12:13:48;28.83;;;17.13;;
8171;SDS011;4127;47.908;10.850;2024-01-11T12:16:16;34.97;;;19.00;;
8171;SDS011;4127;47.908;10.850;2024-01-11T12:18:48;32.33;;;18.70;;
8171;SDS011;4127;47.908;10.850;2024-01-11T12:21:19;36.40;;;21.60;;
8171;SDS011;4127;47.908;10.850;2024-01-11T12:23:47;42.50;;;25.27;;
8171;SDS011;4127;47.908;10.850;2024-01-11T12:26:15;51.17;;;22.70;;
8171;SDS011;4127;47.908;10.850;2024-01-11T12:28:49;43.23;;;22.13;;
8171;SDS011;4127;47.908;10.850;2024-01-11T12:31:17;30.27;;;18.43;;
8171;SDS011;4127;47.908;10.850;2024-01-11T12:33:47;45.47;;;22.60;;
8171;SDS011;4127;47.908;10.850;2024-01-11T12:36:15;54.70;;;20.80;;
8171;SDS011;4127;47.908;10.850;2024-01-11T12:38:46;37.53;;;20.10;;
8171;SDS011;4127;47.908;10.850;2024-01-11T12:41:23;31.23;;;18.23;;
8171;SDS011;4127;47.908;10.850;2024-01-11T12:44:00;43.07;;;19.50;;
8171;SDS011;4127;47.908;10.850;2024-01-11T12:46:28;51.43;;;19.50;;
8171;SDS011;4127;47.908;10.850;2024-01-11T12:48:55;30.83;;;18.53;;
8171;SDS011;4127;47.908;10.850;2024-01-11T12:51:25;28.83;;;17.10;;
8171;SDS011;4127;47.908;10.850;2024-01-11T12:53:52;25.97;;;15.93;;
8171;SDS011;4127;47.908;10.850;2024-01-11T12:56:20;28.07;;;16.60;;
8171;SDS011;4127;47.908;10.850;2024-01-11T12:58:50;29.10;;;17.03;;
8171;SDS011;4127;47.908;10.850;2024-01-11T13:01:17;25.03;;;16.80;;
8171;SDS011;4127;47.908;10.850;2024-01-11T13:03:45;30.93;;;17.53;;
8171;SDS011;4127;47.908;10.850;2024-01-11T13:06:18;28.03;;;17.00;;
8171;SDS011;4127;47.908;10.850;2024-01-11T13:08:46;30.97;;;17.67;;
8171;SDS011;4127;47.908;10.850;2024-01-11T13:11:16;27.43;;;16.63;;
8171;SDS011;4127;47.908;10.850;2024-01-11T13:13:44;25.30;;;15.33;;
8171;SDS011;4127;47.908;10.850;2024-01-11T13:16:14;27.50;;;15.33;;
8171;SDS011;4127;47.908;10.850;2024-01-11T13:18:51;22.63;;;14.87;;
8171;SDS011;4127;47.908;10.850;2024-01-11T13:21:19;24.13;;;15.33;;
8171;SDS011;4127;47.908;10.850;2024-01-11T13:23:46;25.33;;;15.03;;
8171;SDS011;4127;47.908;10.850;2024-01-11T13:26:23;23.00;;;14.83;;
8171;SDS011;4127;47.908;10.850;2024-01-11T13:28:51;29.47;;;17.20;;
8171;SDS011;4127;47.908;10.850;2024-01-11T13:31:19;32.87;;;19.70;;
8171;SDS011;4127;47.908;10.850;2024-01-11T13:33:51;31.00;;;19.00;;
8171;SDS011;4127;47.908;10.850;2024-01-11T13:36:19;27.97;;;17.53;;
8171;SDS011;4127;47.908;10.850;2024-01-11T13:38:46;33.97;;;17.93;;
8171;SDS011;4127;47.908;10.850;2024-01-11T13:41:13;26.37;;;15.67;;
8171;SDS011;4127;47.908;10.850;2024-01-11T13:43:49;25.80;;;15.63;;
8171;SDS011;4127;47.908;10.850;2024-01-11T13:46:16;24.63;;;14.97;;
8171;SDS011;4127;47.908;10.850;2024-01-11T13:48:48;24.27;;;15.37;;
8171;SDS011;4127;47.908;10.850;2024-01-11T13:51:15;27.83;;;16.03;;
8171;SDS011;4127;47.908;10.850;2024-01-11T13:53:47;28.53;;;15.73;;
8171;SDS011;4127;47.908;10.850;2024-01-11T13:56:14;22.83;;;15.90;;
8171;SDS011;4127;47.908;10.850;2024-01-11T13:58:44;22.93;;;15.70;;
8171;SDS011;4127;47.908;10.850;2024-01-11T14:01:12;25.67;;;15.10;;
8171;SDS011;4127;47.908;10.850;2024-01-11T14:03:43;23.10;;;14.67;;
8171;SDS011;4127;47.908;10.850;2024-01-11T14:06:13;25.23;;;15.03;;
8171;SDS011;4127;47.908;10.850;2024-01-11T14:08:41;24.97;;;15.70;;
8171;SDS011;4127;47.908;10.850;2024-01-11T14:11:08;27.87;;;15.23;;
8171;SDS011;4127;47.908;10.850;2024-01-11T14:13:35;24.60;;;15.57;;
8171;SDS011;4127;47.908;10.850;2024-01-11T14:16:02;24.07;;;14.97;;
8171;SDS011;4127;47.908;10.850;2024-01-11T14:18:43;25.53;;;15.37;;
8171;SDS011;4127;47.908;10.850;2024-01-11T14:21:10;25.10;;;15.80;;
8171;SDS011;4127;47.908;10.850;2024-01-11T14:23:43;25.53;;;15.27;;
8171;SDS011;4127;47.908;10.850;2024-01-11T14:26:10;24.43;;;15.80;;
8171;SDS011;4127;47.908;10.850;2024-01-11T14:28:39;26.10;;;16.23;;
8171;SDS011;4127;47.908;10.850;2024-01-11T14:31:09;28.53;;;17.70;;
8171;SDS011;4127;47.908;10.850;2024-01-11T14:33:37;30.87;;;17.63;;
8171;SDS011;4127;47.908;10.850;2024-01-11T14:36:05;26.77;;;17.63;;
8171;SDS011;4127;47.908;10.850;2024-01-11T14:38:32;28.50;;;17.77;;
8171;SDS011;4127;47.908;10.850;2024-01-11T14:40:59;28.43;;;16.30;;
8171;SDS011;4127;47.908;10.850;2024-01-11T14:43:26;30.60;;;18.30;;
8171;SDS011;4127;47.908;10.850;2024-01-11T14:45:57;32.53;;;19.17;;
8171;SDS011;4127;47.908;10.850;2024-01-11T14:48:24;28.27;;;16.00;;